sensor_id;sensor_type;location;lat;lon;timestamp;temperature;humidity
13458;DHT22;6801;53.018;11.560;2023-02-15T00:02:01;3.40;83.50
13458;DHT22;6801;53.018;11.560;2023-02-15T00:04:28;3.40;83.50
13458;DHT22;6801;53.018;11.560;2023-02-15T00:07:14;3.40;83.60
13458;DHT22;6801;53.018;11.560;2023-02-15T00:09:41;3.40;83.60
13458;DHT22;6801;53.018;11.560;2023-02-15T00:12:09;3.40;83.60
13458;DHT22;6801;53.018;11.560;2023-02-15T00:14:36;3.40;83.70
13458;DHT22;6801;53.018;11.560;2023-02-15T00:17:03;3.40;83.80
13458;DHT22;6801;53.018;11.560;2023-02-15T00:19:30;3.30;83.80
13458;DHT22;6801;53.018;11.560;2023-02-15T00:21:57;3.30;83.80
13458;DHT22;6801;53.018;11.560;2023-02-15T00:24:25;3.30;83.90
13458;DHT22;6801;53.018;11.560;2023-02-15T00:26:53;3.30;84.00
13458;DHT22;6801;53.018;11.560;2023-02-15T00:29:20;3.30;84.10
13458;DHT22;6801;53.018;11.560;2023-02-15T00:31:47;3.20;84.10
13458;DHT22;6801;53.018;11.560;2023-02-15T00:34:16;3.20;84.20
13458;DHT22;6801;53.018;11.560;2023-02-15T00:36:44;3.20;84.20
13458;DHT22;6801;53.018;11.560;2023-02-15T00:39:14;3.20;84.20
13458;DHT22;6801;53.018;11.560;2023-02-15T00:41:42;3.10;84.30
13458;DHT22;6801;53.018;11.560;2023-02-15T00:44:10;3.20;84.20
13458;DHT22;6801;53.018;11.560;2023-02-15T00:46:37;3.10;84.20
13458;DHT22;6801;53.018;11.560;2023-02-15T00:49:05;3.10;84.20
13458;DHT22;6801;53.018;11.560;2023-02-15T00:51:32;3.10;84.30
13458;DHT22;6801;53.018;11.560;2023-02-15T00:53:59;3.10;84.40
13458;DHT22;6801;53.018;11.560;2023-02-15T00:56:26;3.10;84.30
13458;DHT22;6801;53.018;11.560;2023-02-15T00:58:55;3.10;84.30
13458;DHT22;6801;53.018;11.560;2023-02-15T01:01:22;3.10;84.30
13458;DHT22;6801;53.018;11.560;2023-02-15T01:03:51;3.10;84.20
13458;DHT22;6801;53.018;11.560;2023-02-15T01:06:18;3.10;84.20
13458;DHT22;6801;53.018;11.560;2023-02-15T01:08:47;3.10;84.20
13458;DHT22;6801;53.018;11.560;2023-02-15T01:11:16;3.10;84.10
13458;DHT22;6801;53.018;11.560;2023-02-15T01:13:47;3.10;84.00
13458;DHT22;6801;53.018;11.560;2023-02-15T01:16:16;3.00;84.10
13458;DHT22;6801;53.018;11.560;2023-02-15T01:18:43;3.00;84.10
13458;DHT22;6801;53.018;11.560;2023-02-15T01:21:12;3.00;84.20
13458;DHT22;6801;53.018;11.560;2023-02-15T01:23:40;3.00;84.20
13458;DHT22;6801;53.018;11.560;2023-02-15T01:26:07;3.00;84.20
13458;DHT22;6801;53.018;11.560;2023-02-15T01:28:34;3.00;84.20
13458;DHT22;6801;53.018;11.560;2023-02-15T01:31:05;3.00;84.20
13458;DHT22;6801;53.018;11.560;2023-02-15T01:33:34;3.00;84.20
13458;DHT22;6801;53.018;11.560;2023-02-15T01:36:02;3.00;84.20
13458;DHT22;6801;53.018;11.560;2023-02-15T01:38:29;2.90;84.20
13458;DHT22;6801;53.018;11.560;2023-02-15T01:40:56;2.90;84.10
13458;DHT22;6801;53.018;11.560;2023-02-15T01:43:46;2.90;84.20
13458;DHT22;6801;53.018;11.560;2023-02-15T01:46:15;2.90;84.20
13458;DHT22;6801;53.018;11.560;2023-02-15T01:48:48;2.90;84.10
13458;DHT22;6801;53.018;11.560;2023-02-15T01:51:18;2.90;84.10
13458;DHT22;6801;53.018;11.560;2023-02-15T01:53:48;2.90;84.10
13458;DHT22;6801;53.018;11.560;2023-02-15T01:56:20;2.90;84.10
13458;DHT22;6801;53.018;11.560;2023-02-15T01:58:49;2.80;84.10
13458;DHT22;6801;53.018;11.560;2023-02-15T02:01:18;2.80;84.20
13458;DHT22;6801;53.018;11.560;2023-02-15T02:03:53;2.80;84.20
13458;DHT22;6801;53.018;11.560;2023-02-15T02:06:23;2.80;84.20
13458;DHT22;6801;53.018;11.560;2023-02-15T02:08:50;2.70;84.30
13458;DHT22;6801;53.018;11.560;2023-02-15T02:11:17;2.70;84.40
13458;DHT22;6801;53.018;11.560;2023-02-15T02:13:47;2.70;84.40
13458;DHT22;6801;53.018;11.560;2023-02-15T02:16:17;2.70;84.40
13458;DHT22;6801;53.018;11.560;2023-02-15T02:18:53;2.60;84.40
13458;DHT22;6801;53.018;11.560;2023-02-15T02:24:41;2.60;84.50
13458;DHT22;6801;53.018;11.560;2023-02-15T02:27:24;2.60;84.60
13458;DHT22;6801;53.018;11.560;2023-02-15T02:30:19;2.60;84.50
13458;DHT22;6801;53.018;11.560;2023-02-15T02:33:20;2.60;84.60
13458;DHT22;6801;53.018;11.560;2023-02-15T02:35:59;2.50;84.60
13458;DHT22;6801;53.018;11.560;2023-02-15T02:38:35;2.50;84.60
13458;DHT22;6801;53.018;11.560;2023-02-15T02:41:12;2.60;84.70
13458;DHT22;6801;53.018;11.560;2023-02-15T02:43:47;2.50;84.60
13458;DHT22;6801;53.018;11.560;2023-02-15T02:46:19;2.50;84.60
13458;DHT22;6801;53.018;11.560;2023-02-15T02:48:49;2.50;84.70
13458;DHT22;6801;53.018;11.560;2023-02-15T02:51:16;2.50;84.70
13458;DHT22;6801;53.018;11.560;2023-02-15T02:53:49;2.50;84.70
13458;DHT22;6801;53.018;11.560;2023-02-15T02:56:22;2.50;84.70
13458;DHT22;6801;53.018;11.560;2023-02-15T02:58:56;2.50;84.80
13458;DHT22;6801;53.018;11.560;2023-02-15T03:01:28;2.40;84.70
13458;DHT22;6801;53.018;11.560;2023-02-15T03:04:00;2.40;84.70
13458;DHT22;6801;53.018;11.560;2023-02-15T03:06:34;2.40;84.60
13458;DHT22;6801;53.018;11.560;2023-02-15T03:09:08;2.40;84.60
13458;DHT22;6801;53.018;11.560;2023-02-15T03:11:41;2.40;84.60
13458;DHT22;6801;53.018;11.560;2023-02-15T03:14:09;2.30;84.60
13458;DHT22;6801;53.018;11.560;2023-02-15T03:16:37;2.30;84.60
13458;DHT22;6801;53.018;11.560;2023-02-15T03:19:10;2.30;84.60
13458;DHT22;6801;53.018;11.560;2023-02-15T03:21:42;2.30;84.60
13458;DHT22;6801;53.018;11.560;2023-02-15T03:24:18;2.30;84.70
13458;DHT22;6801;53.018;11.560;2023-02-15T03:26:50;2.30;84.60
13458;DHT22;6801;53.018;11.560;2023-02-15T03:29:19;2.30;84.70
13458;DHT22;6801;53.018;11.560;2023-02-15T03:31:51;2.30;84.60
13458;DHT22;6801;53.018;11.560;2023-02-15T03:34:22;2.20;84.70
13458;DHT22;6801;53.018;11.560;2023-02-15T03:36:52;2.20;84.70
13458;DHT22;6801;53.018;11.560;2023-02-15T03:39:26;2.20;84.70
13458;DHT22;6801;53.018;11.560;2023-02-15T03:41:59;2.10;84.70
13458;DHT22;6801;53.018;11.560;2023-02-15T03:44:31;2.10;84.70
13458;DHT22;6801;53.018;11.560;2023-02-15T03:47:02;2.10;84.70
13458;DHT22;6801;53.018;11.560;2023-02-15T03:49:39;2.10;84.70
13458;DHT22;6801;53.018;11.560;2023-02-15T03:52:08;2.10;84.70
13458;DHT22;6801;53.018;11.560;2023-02-15T03:54:37;2.10;84.70
13458;DHT22;6801;53.018;11.560;2023-02-15T03:57:18;2.10;84.70
13458;DHT22;6801;53.018;11.560;2023-02-15T04:00:05;2.10;84.70
13458;DHT22;6801;53.018;11.560;2023-02-15T04:03:11;2.10;84.70
13458;DHT22;6801;53.018;11.560;2023-02-15T04:05:41;2.10;84.70
13458;DHT22;6801;53.018;11.560;2023-02-15T04:08:09;2.00;84.70
13458;DHT22;6801;53.018;11.560;2023-02-15T04:10:36;2.00;84.70
13458;DHT22;6801;53.018;11.560;2023-02-15T04:13:22;2.00;84.70
13458;DHT22;6801;53.018;11.560;2023-02-15T04:15:50;2.00;84.80
13458;DHT22;6801;53.018;11.560;2023-02-15T04:18:32;2.00;84.70
13458;DHT22;6801;53.018;11.560;2023-02-15T04:21:20;2.00;84.70
13458;DHT22;6801;53.018;11.560;2023-02-15T04:24:04;2.00;84.70
13458;DHT22;6801;53.018;11.560;2023-02-15T04:26:49;1.90;84.70
13458;DHT22;6801;53.018;11.560;2023-02-15T04:29:19;1.90;84.70
13458;DHT22;6801;53.018;11.560;2023-02-15T04:31:46;1.90;84.80
13458;DHT22;6801;53.018;11.560;2023-02-15T04:34:13;1.90;84.80
13458;DHT22;6801;53.018;11.560;2023-02-15T04:36:42;1.90;84.90
13458;DHT22;6801;53.018;11.560;2023-02-15T04:39:11;1.80;84.90
13458;DHT22;6801;53.018;11.560;2023-02-15T04:41:39;1.80;84.90
13458;DHT22;6801;53.018;11.560;2023-02-15T04:44:06;1.80;85.00
13458;DHT22;6801;53.018;11.560;2023-02-15T04:46:33;1.80;85.00
13458;DHT22;6801;53.018;11.560;2023-02-15T04:49:00;1.80;85.00
13458;DHT22;6801;53.018;11.560;2023-02-15T04:51:27;1.80;85.00
13458;DHT22;6801;53.018;11.560;2023-02-15T04:53:55;1.80;85.00
13458;DHT22;6801;53.018;11.560;2023-02-15T04:56:22;1.80;85.00
13458;DHT22;6801;53.018;11.560;2023-02-15T04:58:49;1.80;84.90
13458;DHT22;6801;53.018;11.560;2023-02-15T05:01:16;1.80;85.00
13458;DHT22;6801;53.018;11.560;2023-02-15T05:03:44;1.70;84.90
13458;DHT22;6801;53.018;11.560;2023-02-15T05:06:11;1.70;85.00
13458;DHT22;6801;53.018;11.560;2023-02-15T05:08:38;1.70;84.90
13458;DHT22;6801;53.018;11.560;2023-02-15T05:11:06;1.60;85.00
13458;DHT22;6801;53.018;11.560;2023-02-15T05:13:33;1.70;84.90
13458;DHT22;6801;53.018;11.560;2023-02-15T05:16:00;1.70;85.00
13458;DHT22;6801;53.018;11.560;2023-02-15T05:18:27;1.70;85.00
13458;DHT22;6801;53.018;11.560;2023-02-15T05:20:54;1.60;85.00
13458;DHT22;6801;53.018;11.560;2023-02-15T05:23:21;1.60;85.00
13458;DHT22;6801;53.018;11.560;2023-02-15T05:25:48;1.60;84.90
13458;DHT22;6801;53.018;11.560;2023-02-15T05:28:34;1.60;84.90
13458;DHT22;6801;53.018;11.560;2023-02-15T05:31:05;1.60;84.90
13458;DHT22;6801;53.018;11.560;2023-02-15T05:33:32;1.60;84.90
13458;DHT22;6801;53.018;11.560;2023-02-15T05:36:00;1.60;84.90
13458;DHT22;6801;53.018;11.560;2023-02-15T05:38:27;1.60;84.80
13458;DHT22;6801;53.018;11.560;2023-02-15T05:40:54;1.60;84.80
13458;DHT22;6801;53.018;11.560;2023-02-15T05:43:21;1.60;84.80
13458;DHT22;6801;53.018;11.560;2023-02-15T05:45:51;1.50;84.90
13458;DHT22;6801;53.018;11.560;2023-02-15T05:48:19;1.50;84.90
13458;DHT22;6801;53.018;11.560;2023-02-15T05:50:46;1.50;84.90
13458;DHT22;6801;53.018;11.560;2023-02-15T05:53:22;1.50;84.90
13458;DHT22;6801;53.018;11.560;2023-02-15T05:55:49;1.50;85.00
13458;DHT22;6801;53.018;11.560;2023-02-15T05:58:16;1.50;84.90
13458;DHT22;6801;53.018;11.560;2023-02-15T06:00:43;1.50;84.90
13458;DHT22;6801;53.018;11.560;2023-02-15T06:03:11;1.50;84.90
13458;DHT22;6801;53.018;11.560;2023-02-15T06:05:38;1.50;85.00
13458;DHT22;6801;53.018;11.560;2023-02-15T06:08:05;1.40;84.90
13458;DHT22;6801;53.018;11.560;2023-02-15T06:10:32;1.50;84.90
13458;DHT22;6801;53.018;11.560;2023-02-15T06:12:59;1.50;84.90
13458;DHT22;6801;53.018;11.560;2023-02-15T06:15:26;1.40;84.90
13458;DHT22;6801;53.018;11.560;2023-02-15T06:17:53;1.40;84.90
13458;DHT22;6801;53.018;11.560;2023-02-15T06:20:21;1.40;84.90
13458;DHT22;6801;53.018;11.560;2023-02-15T06:22:48;1.40;84.90
13458;DHT22;6801;53.018;11.560;2023-02-15T06:25:15;1.50;84.90
13458;DHT22;6801;53.018;11.560;2023-02-15T06:27:42;1.40;84.90
13458;DHT22;6801;53.018;11.560;2023-02-15T06:30:10;1.50;84.90
13458;DHT22;6801;53.018;11.560;2023-02-15T06:32:38;1.50;84.90
13458;DHT22;6801;53.018;11.560;2023-02-15T06:35:06;1.60;84.80
13458;DHT22;6801;53.018;11.560;2023-02-15T06:37:35;1.60;84.80
13458;DHT22;6801;53.018;11.560;2023-02-15T06:40:02;1.60;84.80
13458;DHT22;6801;53.018;11.560;2023-02-15T06:42:30;1.60;84.80
13458;DHT22;6801;53.018;11.560;2023-02-15T06:44:56;1.60;84.80
13458;DHT22;6801;53.018;11.560;2023-02-15T06:47:24;1.60;84.90
13458;DHT22;6801;53.018;11.560;2023-02-15T06:49:51;1.50;84.90
13458;DHT22;6801;53.018;11.560;2023-02-15T06:52:18;1.50;84.90
13458;DHT22;6801;53.018;11.560;2023-02-15T06:54:46;1.50;85.00
13458;DHT22;6801;53.018;11.560;2023-02-15T06:57:13;1.50;85.10
13458;DHT22;6801;53.018;11.560;2023-02-15T06:59:40;1.50;85.20
13458;DHT22;6801;53.018;11.560;2023-02-15T07:02:08;1.50;85.20
13458;DHT22;6801;53.018;11.560;2023-02-15T07:04:35;1.50;85.20
13458;DHT22;6801;53.018;11.560;2023-02-15T07:07:02;1.50;85.30
13458;DHT22;6801;53.018;11.560;2023-02-15T07:09:29;1.50;85.40
13458;DHT22;6801;53.018;11.560;2023-02-15T07:11:58;1.50;85.40
13458;DHT22;6801;53.018;11.560;2023-02-15T07:14:38;1.50;85.30
13458;DHT22;6801;53.018;11.560;2023-02-15T07:17:06;1.50;85.30
13458;DHT22;6801;53.018;11.560;2023-02-15T07:19:33;1.50;85.30
13458;DHT22;6801;53.018;11.560;2023-02-15T07:22:00;1.60;85.30
13458;DHT22;6801;53.018;11.560;2023-02-15T07:24:28;1.60;85.30
13458;DHT22;6801;53.018;11.560;2023-02-15T07:26:55;1.60;85.30
13458;DHT22;6801;53.018;11.560;2023-02-15T07:29:24;1.60;85.10
13458;DHT22;6801;53.018;11.560;2023-02-15T07:31:51;1.60;85.20
13458;DHT22;6801;53.018;11.560;2023-02-15T07:34:18;1.70;85.20
13458;DHT22;6801;53.018;11.560;2023-02-15T07:36:45;1.70;85.10
13458;DHT22;6801;53.018;11.560;2023-02-15T07:39:12;1.80;85.00
13458;DHT22;6801;53.018;11.560;2023-02-15T07:41:39;1.80;84.70
13458;DHT22;6801;53.018;11.560;2023-02-15T07:44:12;1.80;84.70
13458;DHT22;6801;53.018;11.560;2023-02-15T07:46:40;1.80;84.90
13458;DHT22;6801;53.018;11.560;2023-02-15T07:49:07;1.70;85.00
13458;DHT22;6801;53.018;11.560;2023-02-15T07:51:34;1.70;85.10
13458;DHT22;6801;53.018;11.560;2023-02-15T07:54:01;1.70;85.30
13458;DHT22;6801;53.018;11.560;2023-02-15T07:56:28;1.60;85.30
13458;DHT22;6801;53.018;11.560;2023-02-15T07:58:55;1.60;85.30
13458;DHT22;6801;53.018;11.560;2023-02-15T08:01:25;1.60;85.40
13458;DHT22;6801;53.018;11.560;2023-02-15T08:03:54;1.60;85.40
13458;DHT22;6801;53.018;11.560;2023-02-15T08:06:22;1.60;85.40
13458;DHT22;6801;53.018;11.560;2023-02-15T08:08:49;1.60;85.50
13458;DHT22;6801;53.018;11.560;2023-02-15T08:11:19;1.60;85.50
13458;DHT22;6801;53.018;11.560;2023-02-15T08:13:59;1.60;85.50
13458;DHT22;6801;53.018;11.560;2023-02-15T08:16:32;1.70;85.50
13458;DHT22;6801;53.018;11.560;2023-02-15T08:19:03;1.60;85.50
13458;DHT22;6801;53.018;11.560;2023-02-15T08:21:32;1.60;85.50
13458;DHT22;6801;53.018;11.560;2023-02-15T08:23:59;1.70;85.60
13458;DHT22;6801;53.018;11.560;2023-02-15T08:26:28;1.70;85.70
13458;DHT22;6801;53.018;11.560;2023-02-15T08:28:55;1.70;85.60
13458;DHT22;6801;53.018;11.560;2023-02-15T08:31:22;1.70;85.70
13458;DHT22;6801;53.018;11.560;2023-02-15T08:33:50;1.70;85.70
13458;DHT22;6801;53.018;11.560;2023-02-15T08:36:21;1.70;85.60
13458;DHT22;6801;53.018;11.560;2023-02-15T08:38:48;1.80;85.60
13458;DHT22;6801;53.018;11.560;2023-02-15T08:41:17;1.80;85.60
13458;DHT22;6801;53.018;11.560;2023-02-15T08:43:45;1.80;85.60
13458;DHT22;6801;53.018;11.560;2023-02-15T08:46:14;1.80;85.60
13458;DHT22;6801;53.018;11.560;2023-02-15T08:48:42;1.80;85.60
13458;DHT22;6801;53.018;11.560;2023-02-15T08:51:10;1.80;85.60
13458;DHT22;6801;53.018;11.560;2023-02-15T08:53:40;1.80;85.70
13458;DHT22;6801;53.018;11.560;2023-02-15T08:56:08;1.90;85.70
13458;DHT22;6801;53.018;11.560;2023-02-15T08:58:35;1.90;85.60
13458;DHT22;6801;53.018;11.560;2023-02-15T09:01:09;2.00;85.60
13458;DHT22;6801;53.018;11.560;2023-02-15T09:03:36;1.90;85.60
13458;DHT22;6801;53.018;11.560;2023-02-15T09:06:03;1.90;85.60
13458;DHT22;6801;53.018;11.560;2023-02-15T09:08:31;2.00;85.60
13458;DHT22;6801;53.018;11.560;2023-02-15T09:11:07;1.90;85.60
13458;DHT22;6801;53.018;11.560;2023-02-15T09:13:35;2.00;85.60
13458;DHT22;6801;53.018;11.560;2023-02-15T09:16:04;2.00;85.60
13458;DHT22;6801;53.018;11.560;2023-02-15T09:18:33;2.00;85.60
13458;DHT22;6801;53.018;11.560;2023-02-15T09:21:06;2.10;85.60
13458;DHT22;6801;53.018;11.560;2023-02-15T09:23:34;2.00;85.60
13458;DHT22;6801;53.018;11.560;2023-02-15T09:26:08;2.00;85.70
13458;DHT22;6801;53.018;11.560;2023-02-15T09:28:35;2.10;85.60
13458;DHT22;6801;53.018;11.560;2023-02-15T09:31:07;2.10;85.60
13458;DHT22;6801;53.018;11.560;2023-02-15T09:33:35;2.10;85.70
13458;DHT22;6801;53.018;11.560;2023-02-15T09:36:03;2.10;85.70
13458;DHT22;6801;53.018;11.560;2023-02-15T09:38:30;2.10;85.80
13458;DHT22;6801;53.018;11.560;2023-02-15T09:41:11;2.10;85.80
13458;DHT22;6801;53.018;11.560;2023-02-15T09:43:48;2.10;85.80
13458;DHT22;6801;53.018;11.560;2023-02-15T09:46:32;2.10;85.90
13458;DHT22;6801;53.018;11.560;2023-02-15T09:49:09;2.20;85.90
13458;DHT22;6801;53.018;11.560;2023-02-15T09:52:06;2.20;85.90
13458;DHT22;6801;53.018;11.560;2023-02-15T09:54:49;2.20;85.90
13458;DHT22;6801;53.018;11.560;2023-02-15T09:57:27;2.30;85.90
13458;DHT22;6801;53.018;11.560;2023-02-15T10:00:06;2.30;86.00
13458;DHT22;6801;53.018;11.560;2023-02-15T10:02:55;2.30;86.00
13458;DHT22;6801;53.018;11.560;2023-02-15T10:05:33;2.30;86.10
13458;DHT22;6801;53.018;11.560;2023-02-15T10:11:10;2.40;86.20
13458;DHT22;6801;53.018;11.560;2023-02-15T10:14:12;2.40;86.20
13458;DHT22;6801;53.018;11.560;2023-02-15T10:16:45;2.50;86.20
13458;DHT22;6801;53.018;11.560;2023-02-15T10:19:17;2.50;86.20
13458;DHT22;6801;53.018;11.560;2023-02-15T10:21:56;2.50;86.20
13458;DHT22;6801;53.018;11.560;2023-02-15T10:24:49;2.60;86.30
13458;DHT22;6801;53.018;11.560;2023-02-15T10:27:21;2.60;86.30
13458;DHT22;6801;53.018;11.560;2023-02-15T10:29:57;2.60;86.20
13458;DHT22;6801;53.018;11.560;2023-02-15T10:32:28;2.60;86.20
13458;DHT22;6801;53.018;11.560;2023-02-15T10:35:01;2.70;86.10
13458;DHT22;6801;53.018;11.560;2023-02-15T10:37:57;2.70;86.20
13458;DHT22;6801;53.018;11.560;2023-02-15T10:40:31;2.70;86.10
13458;DHT22;6801;53.018;11.560;2023-02-15T10:43:13;2.80;86.00
13458;DHT22;6801;53.018;11.560;2023-02-15T10:45:53;2.80;86.00
13458;DHT22;6801;53.018;11.560;2023-02-15T10:48:34;2.80;86.00
13458;DHT22;6801;53.018;11.560;2023-02-15T10:51:09;2.90;85.90
13458;DHT22;6801;53.018;11.560;2023-02-15T10:53:54;2.90;85.90
13458;DHT22;6801;53.018;11.560;2023-02-15T10:56:30;3.00;85.90
13458;DHT22;6801;53.018;11.560;2023-02-15T10:59:15;3.00;86.00
13458;DHT22;6801;53.018;11.560;2023-02-15T11:01:51;3.00;86.00
13458;DHT22;6801;53.018;11.560;2023-02-15T11:04:48;3.10;86.00
13458;DHT22;6801;53.018;11.560;2023-02-15T11:07:19;3.10;86.00
13458;DHT22;6801;53.018;11.560;2023-02-15T11:09:49;3.10;85.90
13458;DHT22;6801;53.018;11.560;2023-02-15T11:12:22;3.20;85.90
13458;DHT22;6801;53.018;11.560;2023-02-15T11:14:53;3.20;85.80
13458;DHT22;6801;53.018;11.560;2023-02-15T11:17:26;3.20;85.80
13458;DHT22;6801;53.018;11.560;2023-02-15T11:20:00;3.20;85.80
13458;DHT22;6801;53.018;11.560;2023-02-15T11:22:30;3.30;85.80
13458;DHT22;6801;53.018;11.560;2023-02-15T11:25:00;3.30;85.70
13458;DHT22;6801;53.018;11.560;2023-02-15T11:27:30;3.30;85.70
13458;DHT22;6801;53.018;11.560;2023-02-15T11:30:01;3.40;85.70
13458;DHT22;6801;53.018;11.560;2023-02-15T11:32:32;3.40;85.70
13458;DHT22;6801;53.018;11.560;2023-02-15T11:35:01;3.50;85.70
13458;DHT22;6801;53.018;11.560;2023-02-15T11:37:33;3.50;85.70
13458;DHT22;6801;53.018;11.560;2023-02-15T11:40:02;3.50;85.50
13458;DHT22;6801;53.018;11.560;2023-02-15T11:42:31;3.60;85.50
13458;DHT22;6801;53.018;11.560;2023-02-15T11:45:04;3.60;85.50
13458;DHT22;6801;53.018;11.560;2023-02-15T11:47:36;3.70;85.50
13458;DHT22;6801;53.018;11.560;2023-02-15T11:50:04;3.60;85.50
13458;DHT22;6801;53.018;11.560;2023-02-15T11:52:32;3.70;85.50
13458;DHT22;6801;53.018;11.560;2023-02-15T11:55:00;3.80;85.50
13458;DHT22;6801;53.018;11.560;2023-02-15T11:57:33;3.80;85.50
13458;DHT22;6801;53.018;11.560;2023-02-15T12:00:03;3.80;85.50
13458;DHT22;6801;53.018;11.560;2023-02-15T12:02:33;3.90;85.50
13458;DHT22;6801;53.018;11.560;2023-02-15T12:05:09;3.90;85.50
13458;DHT22;6801;53.018;11.560;2023-02-15T12:07:42;4.00;85.50
13458;DHT22;6801;53.018;11.560;2023-02-15T12:10:17;4.00;85.50
13458;DHT22;6801;53.018;11.560;2023-02-15T12:12:46;4.00;85.50
13458;DHT22;6801;53.018;11.560;2023-02-15T12:15:14;4.10;85.50
13458;DHT22;6801;53.018;11.560;2023-02-15T12:17:49;4.10;85.50
13458;DHT22;6801;53.018;11.560;2023-02-15T12:20:29;4.10;85.50
13458;DHT22;6801;53.018;11.560;2023-02-15T12:23:00;4.10;85.50
13458;DHT22;6801;53.018;11.560;2023-02-15T12:25:33;4.20;85.50
13458;DHT22;6801;53.018;11.560;2023-02-15T12:28:02;4.20;85.40
13458;DHT22;6801;53.018;11.560;2023-02-15T12:30:31;4.30;85.50
13458;DHT22;6801;53.018;11.560;2023-02-15T12:33:04;4.30;85.50
13458;DHT22;6801;53.018;11.560;2023-02-15T12:35:35;4.40;85.50
13458;DHT22;6801;53.018;11.560;2023-02-15T12:38:05;4.40;85.40
13458;DHT22;6801;53.018;11.560;2023-02-15T12:40:57;4.50;85.40
13458;DHT22;6801;53.018;11.560;2023-02-15T12:43:26;4.50;85.40
13458;DHT22;6801;53.018;11.560;2023-02-15T12:45:53;4.50;85.40
13458;DHT22;6801;53.018;11.560;2023-02-15T12:48:39;4.50;85.50
13458;DHT22;6801;53.018;11.560;2023-02-15T12:51:13;4.60;85.50
13458;DHT22;6801;53.018;11.560;2023-02-15T12:53:40;4.60;85.50
13458;DHT22;6801;53.018;11.560;2023-02-15T12:56:09;4.70;85.50
13458;DHT22;6801;53.018;11.560;2023-02-15T12:58:37;4.80;85.60
13458;DHT22;6801;53.018;11.560;2023-02-15T13:01:12;4.80;85.60
13458;DHT22;6801;53.018;11.560;2023-02-15T13:03:58;4.80;85.60
13458;DHT22;6801;53.018;11.560;2023-02-15T13:06:27;4.90;85.60
13458;DHT22;6801;53.018;11.560;2023-02-15T13:08:57;4.90;85.70
13458;DHT22;6801;53.018;11.560;2023-02-15T13:11:26;5.00;85.60
13458;DHT22;6801;53.018;11.560;2023-02-15T13:13:55;5.00;85.60
13458;DHT22;6801;53.018;11.560;2023-02-15T13:16:28;5.00;85.60
13458;DHT22;6801;53.018;11.560;2023-02-15T13:18:57;5.00;85.60
13458;DHT22;6801;53.018;11.560;2023-02-15T13:21:30;5.10;85.70
13458;DHT22;6801;53.018;11.560;2023-02-15T13:24:01;5.20;85.70
13458;DHT22;6801;53.018;11.560;2023-02-15T13:26:31;5.30;85.70
13458;DHT22;6801;53.018;11.560;2023-02-15T13:29:05;5.30;85.60
13458;DHT22;6801;53.018;11.560;2023-02-15T13:31:34;5.40;85.60
13458;DHT22;6801;53.018;11.560;2023-02-15T13:34:07;5.40;85.60
13458;DHT22;6801;53.018;11.560;2023-02-15T13:36:43;5.40;85.60
13458;DHT22;6801;53.018;11.560;2023-02-15T13:39:22;5.40;85.50
13458;DHT22;6801;53.018;11.560;2023-02-15T13:41:58;5.50;85.50
13458;DHT22;6801;53.018;11.560;2023-02-15T13:44:52;5.50;85.50
13458;DHT22;6801;53.018;11.560;2023-02-15T13:47:28;5.60;85.50
13458;DHT22;6801;53.018;11.560;2023-02-15T13:50:20;5.70;85.60
13458;DHT22;6801;53.018;11.560;2023-02-15T13:53:08;5.60;85.50
13458;DHT22;6801;53.018;11.560;2023-02-15T13:55:39;5.70;85.50
13458;DHT22;6801;53.018;11.560;2023-02-15T13:58:32;5.70;85.60
13458;DHT22;6801;53.018;11.560;2023-02-15T14:01:09;5.70;85.60
13458;DHT22;6801;53.018;11.560;2023-02-15T14:04:09;5.80;85.70
13458;DHT22;6801;53.018;11.560;2023-02-15T14:06:50;5.80;85.50
13458;DHT22;6801;53.018;11.560;2023-02-15T14:09:30;5.80;85.60
13458;DHT22;6801;53.018;11.560;2023-02-15T14:12:15;5.90;85.60
13458;DHT22;6801;53.018;11.560;2023-02-15T14:14:59;5.80;85.60
13458;DHT22;6801;53.018;11.560;2023-02-15T14:17:42;5.80;85.60
13458;DHT22;6801;53.018;11.560;2023-02-15T14:20:20;5.90;85.70
13458;DHT22;6801;53.018;11.560;2023-02-15T14:22:52;5.90;85.60
13458;DHT22;6801;53.018;11.560;2023-02-15T14:25:28;5.90;85.60
13458;DHT22;6801;53.018;11.560;2023-02-15T14:28:04;5.90;85.60
13458;DHT22;6801;53.018;11.560;2023-02-15T14:30:36;5.90;85.50
13458;DHT22;6801;53.018;11.560;2023-02-15T14:33:06;5.90;85.50
13458;DHT22;6801;53.018;11.560;2023-02-15T14:35:34;5.90;85.40
13458;DHT22;6801;53.018;11.560;2023-02-15T14:38:09;6.00;85.40
13458;DHT22;6801;53.018;11.560;2023-02-15T14:40:46;6.00;85.40
13458;DHT22;6801;53.018;11.560;2023-02-15T14:43:37;6.00;85.40
13458;DHT22;6801;53.018;11.560;2023-02-15T14:46:14;5.90;85.30
13458;DHT22;6801;53.018;11.560;2023-02-15T14:48:46;5.90;85.20
13458;DHT22;6801;53.018;11.560;2023-02-15T14:57:24;5.90;85.10
13458;DHT22;6801;53.018;11.560;2023-02-15T14:59:54;5.90;85.10
13458;DHT22;6801;53.018;11.560;2023-02-15T15:02:25;5.90;85.00
13458;DHT22;6801;53.018;11.560;2023-02-15T15:05:00;6.00;84.80
13458;DHT22;6801;53.018;11.560;2023-02-15T15:07:37;5.90;84.90
13458;DHT22;6801;53.018;11.560;2023-02-15T15:10:23;5.90;84.90
13458;DHT22;6801;53.018;11.560;2023-02-15T15:12:55;5.90;84.90
13458;DHT22;6801;53.018;11.560;2023-02-15T15:15:37;5.90;84.90
13458;DHT22;6801;53.018;11.560;2023-02-15T15:18:44;5.90;84.90
13458;DHT22;6801;53.018;11.560;2023-02-15T15:21:11;5.80;84.90
13458;DHT22;6801;53.018;11.560;2023-02-15T15:23:58;5.80;85.00
13458;DHT22;6801;53.018;11.560;2023-02-15T15:26:27;5.80;85.00
13458;DHT22;6801;53.018;11.560;2023-02-15T15:29:00;5.80;85.00
13458;DHT22;6801;53.018;11.560;2023-02-15T15:31:46;5.80;85.00
13458;DHT22;6801;53.018;11.560;2023-02-15T15:34:49;5.80;84.90
13458;DHT22;6801;53.018;11.560;2023-02-15T15:40:58;5.80;84.70
13458;DHT22;6801;53.018;11.560;2023-02-15T15:44:08;5.80;84.40
13458;DHT22;6801;53.018;11.560;2023-02-15T15:47:00;5.70;84.20
13458;DHT22;6801;53.018;11.560;2023-02-15T15:49:32;5.70;84.20
13458;DHT22;6801;53.018;11.560;2023-02-15T15:52:01;5.60;84.40
13458;DHT22;6801;53.018;11.560;2023-02-15T15:54:30;5.60;84.30
13458;DHT22;6801;53.018;11.560;2023-02-15T15:57:00;5.60;84.40
13458;DHT22;6801;53.018;11.560;2023-02-15T15:59:31;5.50;84.40
13458;DHT22;6801;53.018;11.560;2023-02-15T16:02:03;5.50;84.40
13458;DHT22;6801;53.018;11.560;2023-02-15T16:04:32;5.50;84.40
13458;DHT22;6801;53.018;11.560;2023-02-15T16:07:14;5.50;84.50
13458;DHT22;6801;53.018;11.560;2023-02-15T16:09:54;5.50;84.40
13458;DHT22;6801;53.018;11.560;2023-02-15T16:12:21;5.40;84.50
13458;DHT22;6801;53.018;11.560;2023-02-15T16:14:49;5.40;84.60
13458;DHT22;6801;53.018;11.560;2023-02-15T16:17:21;5.40;84.60
13458;DHT22;6801;53.018;11.560;2023-02-15T16:19:49;5.40;84.60
13458;DHT22;6801;53.018;11.560;2023-02-15T16:22:21;5.40;84.60
13458;DHT22;6801;53.018;11.560;2023-02-15T16:25:13;5.30;84.60
13458;DHT22;6801;53.018;11.560;2023-02-15T16:27:42;5.30;84.70
13458;DHT22;6801;53.018;11.560;2023-02-15T16:30:25;5.30;84.80
13458;DHT22;6801;53.018;11.560;2023-02-15T16:32:54;5.30;84.60
13458;DHT22;6801;53.018;11.560;2023-02-15T16:35:22;5.30;84.60